Weather reports worldwide

Advertisment
Polinya, Spain (8287): temperature & dewpoint: 06.12.2018 00:00:00 - 12.12.2018 00:00:00 (CET)Polinya, Spain (8287): wind speed & gusts: 06.12.2018 00:00:00 - 12.12.2018 00:00:00 (CET)Polinya, Spain (8287): wind direction: 06.12.2018 00:00:00 - 12.12.2018 00:00:00 (CET)
Date & Time tt [°C] td [°C] ff [km/h] ff [kn] fx [km/h] fx [kn] dd
12.12.2018 00:00:00 10,5 6,1 7 4 13 7 SW
11.12.2018 23:00:00 10,0 6,8 2 1 9 5 WNW
11.12.2018 22:00:00 11,0 7,8 5 3 11 6 SW
11.12.2018 21:00:00 10,5 7,4 7 4 12 7 WSW
11.12.2018 20:00:00 10,5 7,4 5 3 8 5 SW
11.12.2018 19:00:00 10,7 7,0 0 0 6 3 N
11.12.2018 18:00:00 11,8 7,7 4 2 9 5 ENE
11.12.2018 17:00:00 13,6 8,4 7 4 15 8 E
11.12.2018 16:00:00 15,1 8,1 7 4 12 6 ESE
11.12.2018 15:00:00 16,0 6,4 3 2 9 5 E
11.12.2018 14:00:00 15,3 5,0 0 0 9 5 SE
11.12.2018 13:00:00 14,2 5,3 3 1 9 5 SSW
11.12.2018 12:00:00 13,0 5,0 3 2 17 9 SW
11.12.2018 11:00:00 11,5 5,1 4 2 13 7 WSW
11.12.2018 10:00:00 9,6 5,0 4 2 16 9 SW
11.12.2018 09:00:00 8,3 5,0 5 3 14 8 WSW
11.12.2018 08:00:00 7,9 4,8 4 2 14 8 SW
11.12.2018 07:00:00 8,7 5,8 5 3 13 7 SW
11.12.2018 06:00:00 9,0 5,9 7 4 16 9 SW
11.12.2018 05:00:00 9,6 6,7 7 4 13 7 SW
11.12.2018 04:00:00 8,6 5,0 9 5 14 8 SW
11.12.2018 03:00:00 9,1 5,3 5 3 13 7 WSW
11.12.2018 02:00:00 10,1 6,1 5 3 10 6 SW
11.12.2018 01:00:00 9,8 5,9 5 3 11 6 SW
11.12.2018 00:00:00 10,3 7,1 3 2 8 4 SW
10.12.2018 23:00:00 10,9 7,7 3 2 11 6 WSW
10.12.2018 22:00:00 10,9 7,7 7 4 11 6 SW
10.12.2018 21:00:00 9,4 5,8 3 1 8 4 SW
10.12.2018 20:00:00 10,6 7,0 0 0 5 3 N
10.12.2018 19:00:00 11,4 7,6 3 2 8 4 N
10.12.2018 18:00:00 12,3 8,0 5 3 13 7 E
10.12.2018 17:00:00 14,5 7,7 9 5 23 12 E
10.12.2018 16:00:00 15,6 7,6 9 5 23 12 ESE
10.12.2018 15:00:00 16,3 7,7 12 6 24 13 ESE
10.12.2018 14:00:00 16,5 7,7 11 6 21 12 E
10.12.2018 13:00:00 16,8 7,7 9 5 19 10 ESE
10.12.2018 12:00:00 15,8 3,6 1 0 10 6 S
10.12.2018 11:00:00 14,2 1,5 6 4 15 8 SW
10.12.2018 10:00:00 11,4 2,1 3 2 12 7 SW
10.12.2018 09:00:00 6,4 2,1 0 0 4 2 SSW
10.12.2018 08:00:00 5,9 1,3 1 0 4 2 WNW
10.12.2018 07:00:00 6,8 0,9 0 0 3 2 NW
10.12.2018 06:00:00 9,1 -0,5 1 1 10 5 W
10.12.2018 05:00:00 12,9 0,0 5 3 12 6 SW
10.12.2018 04:00:00 14,5 0,0 6 3 32 17 SW
10.12.2018 03:00:00 15,0 0,9 10 5 24 13 WSW
10.12.2018 02:00:00 15,1 1,3 10 5 22 12 SW
10.12.2018 01:00:00 15,8 2,5 10 6 22 12 SW
10.12.2018 00:00:00 16,1 3,6 12 7 23 12 SW
09.12.2018 23:00:00 15,9 3,9 10 6 21 12 SW
09.12.2018 22:00:00 16,8 4,5 9 5 17 9 SW
09.12.2018 21:00:00 17,3 5,3 10 6 19 10 WSW
09.12.2018 20:00:00 17,0 4,6 9 5 18 10 SW
09.12.2018 19:00:00 17,1 4,8 6 4 14 7 SW
09.12.2018 18:00:00 18,0 4,1 8 4 12 7 SW
09.12.2018 17:00:00 20,9 4,8 5 3 15 8 SW
09.12.2018 16:00:00 22,0 5,0 5 3 18 10 SW
09.12.2018 15:00:00 22,2 5,6 7 4 22 12 SW
09.12.2018 14:00:00 21,2 4,6 10 5 22 12 SW
09.12.2018 13:00:00 20,1 4,1 13 7 28 15 SW
09.12.2018 12:00:00 18,6 3,6 14 8 28 15 SW
09.12.2018 11:00:00 17,0 2,9 10 6 24 13 SW
09.12.2018 10:00:00 15,1 2,3 13 7 28 15 SW
09.12.2018 09:00:00 13,6 1,9 15 8 28 15 SW
09.12.2018 08:00:00 12,8 1,5 13 7 29 16 SW
09.12.2018 07:00:00 13,5 2,5 14 8 26 14 SW
09.12.2018 06:00:00 12,7 2,5 13 7 24 13 SW
09.12.2018 05:00:00 12,6 2,5 11 6 27 15 SW
09.12.2018 04:00:00 13,0 3,0 11 6 25 14 SW
09.12.2018 03:00:00 12,8 3,4 12 7 26 14 SW
09.12.2018 02:00:00 12,7 3,4 10 5 23 13 SW
09.12.2018 01:00:00 12,3 3,9 9 5 18 10 SW
09.12.2018 00:00:00 12,4 4,3 9 5 17 9 SW
08.12.2018 23:00:00 11,3 4,8 6 4 17 9 SW
08.12.2018 22:00:00 12,7 5,8 7 4 21 11 SW
08.12.2018 21:00:00 13,0 7,7 8 4 14 8 SW
08.12.2018 20:00:00 9,6 5,5 0 0 3 2 NW
08.12.2018 19:00:00 11,5 6,8 0 0 7 4 N
08.12.2018 18:00:00 13,3 8,0 4 2 14 8 E
08.12.2018 17:00:00 16,0 7,7 5 3 17 9 ESE
08.12.2018 16:00:00 16,7 7,1 8 4 17 9 ESE
08.12.2018 15:00:00 17,6 5,1 1 1 10 6 ENE
08.12.2018 14:00:00 17,7 5,3 2 1 9 5 SSE
08.12.2018 13:00:00 17,4 5,3 7 4 17 9 SW
08.12.2018 12:00:00 16,1 5,1 9 5 22 12 SW
08.12.2018 11:00:00 15,3 5,0 10 5 21 11 SW
08.12.2018 10:00:00 14,0 4,8 8 5 19 10 SW
08.12.2018 09:00:00 12,9 4,1 10 5 22 12 SW
08.12.2018 08:00:00 12,4 3,8 9 5 17 9 SW
08.12.2018 07:00:00 12,4 4,1 6 4 14 8 WSW
08.12.2018 06:00:00 12,0 3,8 8 5 15 8 SW
08.12.2018 05:00:00 12,2 3,4 8 5 14 8 WSW
08.12.2018 04:00:00 12,4 3,4 6 3 11 6 SW
08.12.2018 03:00:00 14,1 3,2 5 3 13 7 WSW
08.12.2018 02:00:00 15,2 3,4 9 5 16 9 SW
08.12.2018 01:00:00 14,9 3,0 5 3 19 10 SW
08.12.2018 00:00:00 15,6 3,4 10 6 23 13 SW
07.12.2018 23:00:00 16,0 4,1 12 6 27 15 SW
07.12.2018 22:00:00 15,0 4,3 8 4 15 8 SW
07.12.2018 21:00:00 12,2 5,3 5 3 9 5 SW
07.12.2018 20:00:00 13,6 4,6 1 0 13 7 W
07.12.2018 19:00:00 15,4 5,3 5 3 11 6 SW
07.12.2018 18:00:00 14,3 9,0 2 1 6 3 ESE
07.12.2018 17:00:00 17,2 10,5 2 1 14 8 SSE
07.12.2018 16:00:00 16,9 9,3 5 3 16 8 ESE
07.12.2018 15:00:00 18,0 8,3 7 4 14 8 ESE
07.12.2018 14:00:00 18,8 5,6 7 4 16 9 SW
07.12.2018 13:00:00 17,2 5,8 7 4 17 9 SW
07.12.2018 12:00:00 15,8 5,5 8 4 22 12 SW
07.12.2018 11:00:00 14,0 5,6 12 6 20 11 SW
07.12.2018 10:00:00 12,0 5,6 12 6 24 13 SW
07.12.2018 09:00:00 11,0 6,4 7 4 16 8 SW
07.12.2018 08:00:00 10,2 5,8 8 4 15 8 SW
07.12.2018 07:00:00 10,6 6,4 8 4 15 8 SW
07.12.2018 06:00:00 10,9 7,3 8 4 18 10 SW
07.12.2018 05:00:00 10,5 6,8 3 2 11 6 SW
07.12.2018 04:00:00 10,7 7,0 4 2 11 6 WSW
07.12.2018 03:00:00 10,8 7,1 4 2 10 5 WSW
07.12.2018 02:00:00 11,7 7,8 4 2 15 8 WSW
07.12.2018 01:00:00 11,0 7,8 8 5 13 7 SW
07.12.2018 00:00:00 8,9 5,8 0 0 9 5 N
06.12.2018 23:00:00 8,9 5,6 0 0 8 4 N
06.12.2018 22:00:00 10,9 7,6 5 3 9 5 SW
06.12.2018 21:00:00 10,2 6,4 1 0 3 2 WNW
06.12.2018 20:00:00 11,4 7,0 2 1 8 5 NNW
06.12.2018 19:00:00 12,6 7,7 3 2 8 4 SE
06.12.2018 18:00:00 14,2 8,7 3 2 16 9 ESE
06.12.2018 17:00:00 16,6 9,8 6 3 19 10 E
06.12.2018 16:00:00 17,0 7,8 10 6 22 12 ESE
06.12.2018 15:00:00 19,3 7,7 8 5 16 9 E
06.12.2018 14:00:00 19,9 6,2 5 3 13 7 E
06.12.2018 13:00:00 19,0 5,5 1 0 13 7 W
06.12.2018 12:00:00 18,6 5,1 9 5 21 12 SW
06.12.2018 11:00:00 17,8 5,0 9 5 18 10 SW
06.12.2018 10:00:00 15,8 4,8 6 4 23 12 SW
06.12.2018 09:00:00 13,3 4,1 4 2 12 6 WSW
06.12.2018 08:00:00 12,7 3,6 5 3 18 10 SW
06.12.2018 07:00:00 14,1 4,1 8 4 16 9 SW
06.12.2018 06:00:00 13,8 4,6 7 4 16 8 SW
06.12.2018 05:00:00 10,1 5,9 5 3 10 5 SW
06.12.2018 04:00:00 9,7 5,5 1 0 9 5 SSW
06.12.2018 03:00:00 15,2 4,3 8 4 19 10 SW
06.12.2018 02:00:00 10,4 5,9 2 1 11 6 WNW
06.12.2018 01:00:00 14,2 5,8 6 3 16 8 SW
06.12.2018 00:00:00 10,8 7,8 1 1 15 8 WSW

tt = temperature
td = dewpoint
ff = wind speed
fx = gusts
dd = wind direction

Next stations